createdAt,value
2022-11-01T00:00:25.222Z,0.00
2022-11-01T00:01:25.302Z,0.00
2022-11-01T00:02:25.311Z,0.00
2022-11-01T00:03:25.245Z,0.00
2022-11-01T00:04:25.252Z,0.00
2022-11-01T00:05:25.267Z,0.00
2022-11-01T00:06:25.270Z,0.00
2022-11-01T00:08:07.847Z,0.00
2022-11-01T00:09:07.824Z,0.00
2022-11-01T00:10:07.893Z,0.00
2022-11-01T00:11:50.392Z,0.00
2022-11-01T00:13:32.939Z,0.00
2022-11-01T00:15:32.946Z,0.00
2022-11-01T00:17:25.518Z,0.00
2022-11-01T00:18:25.523Z,0.00
2022-11-01T00:19:25.531Z,0.00
2022-11-01T00:20:25.543Z,0.00
2022-11-01T00:21:25.546Z,0.00
2022-11-01T00:22:25.550Z,0.00
2022-11-01T00:23:25.582Z,0.00
2022-11-01T00:24:28.996Z,0.00
2022-11-01T00:25:25.580Z,0.00
2022-11-01T00:26:25.582Z,0.00
2022-11-01T00:27:25.595Z,0.00
2022-11-01T00:28:25.592Z,0.00
2022-11-01T00:30:23.176Z,0.00
2022-11-01T00:31:23.197Z,0.00
2022-11-01T00:32:23.194Z,0.00
2022-11-01T00:33:23.194Z,0.00
2022-11-01T00:34:23.211Z,0.00
2022-11-01T00:35:23.216Z,0.00
2022-11-01T00:36:23.222Z,0.00
2022-11-01T00:37:23.230Z,0.00
2022-11-01T00:38:23.235Z,0.00
2022-11-01T00:39:27.299Z,0.00
2022-11-01T00:40:23.243Z,0.00
2022-11-01T00:41:23.259Z,0.00
2022-11-01T00:42:23.268Z,0.00
2022-11-01T00:43:23.276Z,0.00
2022-11-01T00:44:23.278Z,0.00
2022-11-01T00:45:23.280Z,0.00
2022-11-01T00:46:23.292Z,0.00
2022-11-01T00:47:23.296Z,0.00
2022-11-01T00:48:23.300Z,0.00
2022-11-01T00:49:23.315Z,0.00
2022-11-01T00:50:23.316Z,0.00
2022-11-01T00:51:23.333Z,0.00
2022-11-01T00:52:23.336Z,0.00
2022-11-01T00:53:23.335Z,0.00
2022-11-01T00:54:23.350Z,0.00
2022-11-01T00:55:23.386Z,0.00
2022-11-01T00:56:23.356Z,0.00
2022-11-01T00:57:23.370Z,0.00
2022-11-01T00:58:23.370Z,0.00
2022-11-01T00:59:23.376Z,0.00
2022-11-01T01:01:06.062Z,0.00
2022-11-01T01:02:06.116Z,0.00
2022-11-01T01:03:05.948Z,0.00
2022-11-01T01:04:05.947Z,0.00
2022-11-01T01:05:05.963Z,0.00
2022-11-01T01:06:05.961Z,0.00
2022-11-01T01:07:05.970Z,0.00
2022-11-01T01:08:05.981Z,0.00
2022-11-01T01:09:05.990Z,0.00
2022-11-01T01:10:05.988Z,0.00
2022-11-01T01:11:06.025Z,0.00
2022-11-01T01:12:06.003Z,0.00
2022-11-01T01:13:06.008Z,0.00
2022-11-01T01:14:06.017Z,0.00
2022-11-01T01:15:06.038Z,0.00
2022-11-01T01:16:06.030Z,0.00
2022-11-01T01:17:06.043Z,0.00
2022-11-01T01:18:06.044Z,0.00
2022-11-01T01:19:06.052Z,0.00
2022-11-01T01:20:06.065Z,0.00
2022-11-01T01:21:06.073Z,0.00
2022-11-01T01:22:06.071Z,0.00
2022-11-01T01:23:06.087Z,0.00
2022-11-01T01:24:06.092Z,0.00
2022-11-01T01:25:06.094Z,0.00
2022-11-01T01:26:06.106Z,0.00
2022-11-01T01:27:06.742Z,0.00
2022-11-01T01:28:06.124Z,0.00
2022-11-01T01:29:06.120Z,0.00
2022-11-01T01:30:06.135Z,0.00
2022-11-01T01:31:06.132Z,0.00
2022-11-01T01:32:06.148Z,0.00
2022-11-01T01:33:06.217Z,0.00
2022-11-01T01:34:06.155Z,0.00
2022-11-01T01:35:06.162Z,0.00
2022-11-01T01:36:06.170Z,0.00
2022-11-01T01:37:06.176Z,0.00
2022-11-01T01:38:06.183Z,0.00
2022-11-01T01:39:06.200Z,0.00
2022-11-01T01:40:06.196Z,0.00
2022-11-01T01:41:06.199Z,0.00
2022-11-01T01:42:06.217Z,0.00
2022-11-01T01:43:06.241Z,0.00
2022-11-01T01:44:06.229Z,0.00
2022-11-01T01:45:06.228Z,0.00
2022-11-01T01:46:06.242Z,0.00
2022-11-01T01:47:06.244Z,0.00
2022-11-01T01:48:06.260Z,0.00
2022-11-01T01:49:06.256Z,0.00
2022-11-01T01:50:06.270Z,0.00
2022-11-01T01:51:06.278Z,0.00
2022-11-01T01:52:06.282Z,0.00
2022-11-01T01:53:06.351Z,0.00
2022-11-01T01:54:06.289Z,0.00
2022-11-01T01:55:06.306Z,0.00
2022-11-01T01:56:06.308Z,0.00
2022-11-01T01:57:06.309Z,0.00
2022-11-01T01:58:06.322Z,0.00
2022-11-01T01:59:06.361Z,0.00
2022-11-01T02:00:06.335Z,0.00
2022-11-01T02:01:06.505Z,0.00
2022-11-01T02:02:06.503Z,0.00
2022-11-01T02:03:06.355Z,0.00
2022-11-01T02:04:06.354Z,0.00
2022-11-01T02:05:06.361Z,0.00
2022-11-01T02:06:06.374Z,0.00
2022-11-01T02:07:06.483Z,0.00
2022-11-01T02:08:06.388Z,0.00
2022-11-01T02:09:06.394Z,0.00
2022-11-01T02:10:06.396Z,0.00
2022-11-01T02:11:06.401Z,0.00
2022-11-01T02:12:06.419Z,0.00
2022-11-01T02:13:06.413Z,0.00
2022-11-01T02:14:06.430Z,0.00
2022-11-01T02:15:06.454Z,0.00
2022-11-01T02:16:06.442Z,0.00
2022-11-01T02:17:08.716Z,0.00
2022-11-01T02:18:06.448Z,0.00
2022-11-01T02:19:06.454Z,0.00
2022-11-01T02:20:06.671Z,0.00
2022-11-01T02:21:06.468Z,0.00
2022-11-01T02:22:06.482Z,0.00
2022-11-01T02:23:06.481Z,0.00
2022-11-01T02:24:06.497Z,0.00
2022-11-01T02:25:06.493Z,0.00
2022-11-01T02:26:06.501Z,0.00
2022-11-01T02:27:06.516Z,0.00
2022-11-01T02:28:06.519Z,0.00
2022-11-01T02:29:06.520Z,0.00
2022-11-01T02:30:06.538Z,0.00
2022-11-01T02:31:06.554Z,0.00
2022-11-01T02:32:06.547Z,0.00
2022-11-01T02:33:06.555Z,0.00
2022-11-01T02:34:06.561Z,0.00
2022-11-01T02:35:06.561Z,0.00
2022-11-01T02:36:06.574Z,0.00
2022-11-01T02:37:06.583Z,0.00
2022-11-01T02:38:06.589Z,0.00
2022-11-01T02:39:06.630Z,0.00
2022-11-01T02:40:06.600Z,0.00
2022-11-01T02:41:06.608Z,0.00
2022-11-01T02:42:06.607Z,0.00
2022-11-01T02:43:06.623Z,0.00
2022-11-01T02:44:06.622Z,0.00
2022-11-01T02:45:06.634Z,0.00
2022-11-01T02:46:06.636Z,0.00
2022-11-01T02:47:06.663Z,0.00
2022-11-01T02:48:06.648Z,0.00
2022-11-01T02:49:59.223Z,0.00
2022-11-01T02:50:59.225Z,0.00
2022-11-01T02:51:59.230Z,0.00
2022-11-01T02:52:59.534Z,0.00
2022-11-01T02:53:59.250Z,0.00
2022-11-01T02:54:59.260Z,0.00
2022-11-01T02:55:59.266Z,0.00
2022-11-01T02:56:59.264Z,0.00
2022-11-01T02:57:59.541Z,0.00
2022-11-01T02:58:59.278Z,0.00
2022-11-01T02:59:59.291Z,0.00
2022-11-01T03:00:59.396Z,0.00
2022-11-01T03:01:59.437Z,0.00
2022-11-01T03:02:59.326Z,0.00
2022-11-01T03:03:59.328Z,0.00
2022-11-01T03:04:59.337Z,0.00
2022-11-01T03:05:59.336Z,0.00
2022-11-01T03:06:59.329Z,0.00
2022-11-01T03:07:59.661Z,0.00
2022-11-01T03:08:59.346Z,0.00
2022-11-01T03:09:59.361Z,0.00
2022-11-01T03:11:41.900Z,0.00
2022-11-01T03:12:41.915Z,0.00
2022-11-01T03:13:41.913Z,0.00
2022-11-01T03:14:41.920Z,0.00
2022-11-01T03:15:41.926Z,0.00
2022-11-01T03:16:41.934Z,0.00
2022-11-01T03:17:41.938Z,0.00
2022-11-01T03:18:41.971Z,0.00
2022-11-01T03:20:24.520Z,0.00
2022-11-01T03:21:24.509Z,0.00
2022-11-01T03:22:24.510Z,0.00
2022-11-01T03:23:24.522Z,0.00
2022-11-01T03:24:24.523Z,0.00
2022-11-01T03:25:24.536Z,0.00
2022-11-01T03:26:24.544Z,0.00
2022-11-01T03:27:24.551Z,0.00
2022-11-01T03:28:24.556Z,0.00
2022-11-01T03:29:24.554Z,0.00
2022-11-01T03:30:24.569Z,0.00
2022-11-01T03:31:24.582Z,0.00
2022-11-01T03:32:24.575Z,0.00
2022-11-01T03:33:24.587Z,0.00
2022-11-01T03:35:17.178Z,0.00
2022-11-01T03:36:17.157Z,0.00
2022-11-01T03:38:39.791Z,0.00
2022-11-01T03:39:39.791Z,0.00
2022-11-01T03:42:02.425Z,0.00
2022-11-01T03:43:02.880Z,0.00
2022-11-01T03:44:02.432Z,0.00
2022-11-01T03:45:02.440Z,0.00
2022-11-01T03:46:02.443Z,0.00
2022-11-01T03:47:02.447Z,0.00
2022-11-01T03:48:02.782Z,0.00
2022-11-01T03:49:02.467Z,0.00
2022-11-01T03:50:02.478Z,0.00
2022-11-01T03:51:02.494Z,0.00
2022-11-01T03:52:02.488Z,0.00
2022-11-01T03:53:02.494Z,0.00
2022-11-01T03:54:02.493Z,0.00
2022-11-01T03:55:02.508Z,0.00
2022-11-01T03:56:02.510Z,0.00
2022-11-01T03:57:02.513Z,0.00
2022-11-01T03:58:02.853Z,0.00
2022-11-01T04:00:20.137Z,0.00
2022-11-01T04:01:20.343Z,0.00
2022-11-01T04:03:42.778Z,0.00
2022-11-01T04:04:42.775Z,0.00
2022-11-01T04:06:50.396Z,0.00
2022-11-01T04:07:50.385Z,0.00
2022-11-01T04:08:53.015Z,0.00
2022-11-01T04:09:50.390Z,0.00
2022-11-01T04:11:32.941Z,0.00
2022-11-01T04:12:32.955Z,0.00
2022-11-01T04:13:32.955Z,0.00
2022-11-01T04:14:32.958Z,0.00
2022-11-01T04:15:37.001Z,0.00
2022-11-01T04:16:32.972Z,0.00
2022-11-01T04:17:32.978Z,0.00
2022-11-01T04:18:33.050Z,0.00
2022-11-01T04:19:32.996Z,0.00
2022-11-01T04:21:25.571Z,0.00
2022-11-01T04:22:25.591Z,0.00
2022-11-01T04:23:25.582Z,0.00
2022-11-01T04:24:25.583Z,0.00
2022-11-01T04:25:25.584Z,0.00
2022-11-01T04:26:25.589Z,0.00
2022-11-01T04:27:25.596Z,0.00
2022-11-01T04:28:25.609Z,0.00
2022-11-01T04:29:25.607Z,0.00
2022-11-01T04:30:25.621Z,0.00
2022-11-01T04:31:25.626Z,0.00
2022-11-01T04:32:25.635Z,0.00
2022-11-01T04:33:25.639Z,0.00
2022-11-01T04:34:25.648Z,0.00
2022-11-01T04:35:25.651Z,0.00
2022-11-01T04:36:25.651Z,0.00
2022-11-01T04:37:25.660Z,0.00
2022-11-01T04:38:25.694Z,0.00
2022-11-01T04:39:25.678Z,0.00
2022-11-01T04:40:25.678Z,0.00
2022-11-01T04:41:25.681Z,0.00
2022-11-01T04:42:25.691Z,0.00
2022-11-01T04:43:25.694Z,0.00
2022-11-01T04:44:25.708Z,0.00
2022-11-01T04:45:25.711Z,0.00
2022-11-01T04:46:25.712Z,0.00
2022-11-01T04:47:25.732Z,0.00
2022-11-01T04:48:25.731Z,0.00
2022-11-01T04:49:25.741Z,0.00
2022-11-01T04:50:25.737Z,0.00
2022-11-01T04:51:25.793Z,0.00
2022-11-01T04:52:25.756Z,0.00
2022-11-01T04:53:25.757Z,0.00
2022-11-01T04:54:25.796Z,0.00
2022-11-01T04:55:25.779Z,0.00
2022-11-01T04:56:25.777Z,0.00
2022-11-01T04:57:25.789Z,0.00
2022-11-01T04:58:25.795Z,0.00
2022-11-01T04:59:25.802Z,0.00
2022-11-01T05:00:25.800Z,0.00
2022-11-01T05:01:25.990Z,0.00
2022-11-01T05:02:25.825Z,0.00
2022-11-01T05:03:25.820Z,0.00
2022-11-01T05:04:25.826Z,0.00
2022-11-01T05:05:25.831Z,0.00
2022-11-01T05:06:25.849Z,0.00
2022-11-01T05:07:25.852Z,0.00
2022-11-01T05:08:25.859Z,0.00
2022-11-01T05:09:25.857Z,0.00
2022-11-01T05:10:25.884Z,0.00
2022-11-01T05:11:26.045Z,0.00
2022-11-01T05:12:25.876Z,0.00
2022-11-01T05:13:25.889Z,0.00
2022-11-01T05:14:25.891Z,0.00
2022-11-01T05:15:25.901Z,0.00
2022-11-01T05:16:25.901Z,0.00
2022-11-01T05:17:25.914Z,0.00
2022-11-01T05:18:25.930Z,0.00
2022-11-01T05:19:25.928Z,0.00
2022-11-01T05:20:25.932Z,0.00
2022-11-01T05:21:25.933Z,0.00
2022-11-01T05:22:25.945Z,0.00
2022-11-01T05:23:25.953Z,0.00
2022-11-01T05:24:25.949Z,0.00
2022-11-01T05:25:25.957Z,0.00
2022-11-01T05:26:25.982Z,0.00
2022-11-01T05:27:25.977Z,0.00
2022-11-01T05:28:25.981Z,0.00
2022-11-01T05:29:32.825Z,0.00
2022-11-01T05:30:25.993Z,0.00
2022-11-01T05:31:25.993Z,0.00
2022-11-01T05:32:25.998Z,0.00
2022-11-01T05:33:26.007Z,0.00
2022-11-01T05:34:26.011Z,0.00
2022-11-01T05:35:26.018Z,0.00
2022-11-01T05:36:26.029Z,0.00
2022-11-01T05:37:28.244Z,0.00
2022-11-01T05:38:26.041Z,0.00
2022-11-01T05:39:26.041Z,0.00
2022-11-01T05:40:26.048Z,0.00
2022-11-01T05:41:26.062Z,0.00
2022-11-01T05:42:26.090Z,0.00
2022-11-01T05:43:26.073Z,0.00
2022-11-01T05:44:26.080Z,0.00
2022-11-01T05:45:26.077Z,0.00
2022-11-01T05:46:26.093Z,0.00
2022-11-01T05:47:26.097Z,0.00
2022-11-01T05:48:26.105Z,0.00
2022-11-01T05:49:26.109Z,0.00
2022-11-01T05:50:26.117Z,0.00
2022-11-01T05:51:26.113Z,0.00
2022-11-01T05:52:26.129Z,0.00
2022-11-01T05:53:26.133Z,0.00
2022-11-01T05:54:26.141Z,0.00
2022-11-01T05:55:26.146Z,0.00
2022-11-01T05:56:26.145Z,0.00
2022-11-01T05:57:30.926Z,0.00
2022-11-01T05:58:29.636Z,0.00
2022-11-01T05:59:26.164Z,0.00
2022-11-01T06:00:26.169Z,0.00
2022-11-01T06:01:26.202Z,0.00
2022-11-01T06:02:26.253Z,0.00
2022-11-01T06:03:26.195Z,0.00
2022-11-01T06:04:26.199Z,0.00
2022-11-01T06:05:26.201Z,0.00
2022-11-01T06:06:26.205Z,0.00
2022-11-01T06:07:26.221Z,0.00
2022-11-01T06:08:26.223Z,0.00
2022-11-01T06:09:26.232Z,0.00
2022-11-01T06:10:26.229Z,0.00
2022-11-01T06:11:26.239Z,5.63
2022-11-01T06:12:26.251Z,5.63
2022-11-01T06:13:26.254Z,5.63
2022-11-01T06:14:26.344Z,5.63
2022-11-01T06:15:26.258Z,5.63
2022-11-01T06:16:26.305Z,5.63
2022-11-01T06:17:26.278Z,5.63
2022-11-01T06:18:26.285Z,5.63
2022-11-01T06:19:26.282Z,5.63
2022-11-01T06:20:26.291Z,5.63
2022-11-01T06:21:29.278Z,5.63
2022-11-01T06:22:26.312Z,5.63
2022-11-01T06:23:26.320Z,5.63
2022-11-01T06:24:26.320Z,5.63
2022-11-01T06:25:26.322Z,5.63
2022-11-01T06:26:26.334Z,5.63
2022-11-01T06:27:26.340Z,5.63
2022-11-01T06:28:26.359Z,5.63
2022-11-01T06:29:26.344Z,5.63
2022-11-01T06:30:26.385Z,5.63
2022-11-01T06:31:26.364Z,5.63
2022-11-01T06:32:26.364Z,5.63
2022-11-01T06:33:26.368Z,5.63
2022-11-01T06:34:26.382Z,5.63
2022-11-01T06:35:26.387Z,5.63
2022-11-01T06:36:26.387Z,5.63
2022-11-01T06:37:26.398Z,5.63
2022-11-01T06:38:26.412Z,5.63
2022-11-01T06:39:26.412Z,5.63
2022-11-01T06:40:26.412Z,5.63
2022-11-01T06:41:26.420Z,11.25
2022-11-01T06:42:26.432Z,11.25
2022-11-01T06:43:26.438Z,11.25
2022-11-01T06:44:26.443Z,11.25
2022-11-01T06:45:26.444Z,11.25
2022-11-01T06:46:26.485Z,16.88
2022-11-01T06:47:26.558Z,16.88
2022-11-01T06:48:26.468Z,16.88
2022-11-01T06:49:26.475Z,16.88
2022-11-01T06:50:26.483Z,16.88
2022-11-01T06:51:26.478Z,22.50
2022-11-01T06:52:26.488Z,22.50
2022-11-01T06:53:26.490Z,22.50
2022-11-01T06:54:26.505Z,28.13
2022-11-01T06:55:26.503Z,28.13
2022-11-01T06:56:26.517Z,28.13
2022-11-01T06:57:26.515Z,33.75
2022-11-01T06:58:26.523Z,33.75
2022-11-01T06:59:26.527Z,33.75
2022-11-01T07:00:26.535Z,33.75
2022-11-01T07:01:26.664Z,33.75
2022-11-01T07:02:29.599Z,39.38
2022-11-01T07:03:26.556Z,39.38
2022-11-01T07:04:26.566Z,33.75
2022-11-01T07:05:26.567Z,33.75
2022-11-01T07:06:26.577Z,28.13
2022-11-01T07:07:26.592Z,28.13
2022-11-01T07:08:26.591Z,28.13
2022-11-01T07:09:26.591Z,28.13
2022-11-01T07:10:26.604Z,28.13
2022-11-01T07:11:31.149Z,28.13
2022-11-01T07:12:26.614Z,28.13
2022-11-01T07:13:26.623Z,28.13
2022-11-01T07:14:26.628Z,28.13
2022-11-01T07:15:26.636Z,28.13
2022-11-01T07:16:26.663Z,28.13
2022-11-01T07:17:26.647Z,28.13
2022-11-01T07:18:26.672Z,33.75
2022-11-01T07:19:26.660Z,39.38
2022-11-01T07:20:26.656Z,39.38
2022-11-01T07:21:26.664Z,33.75
2022-11-01T07:22:26.671Z,33.75
2022-11-01T07:23:26.683Z,33.75
2022-11-01T07:24:26.683Z,33.75
2022-11-01T07:25:26.689Z,39.38
2022-11-01T07:26:26.696Z,39.38
2022-11-01T07:27:26.708Z,45.00
2022-11-01T07:28:26.714Z,50.63
2022-11-01T07:29:26.719Z,56.25
2022-11-01T07:30:26.721Z,56.25
2022-11-01T07:31:26.733Z,56.25
2022-11-01T07:32:26.733Z,61.88
2022-11-01T07:33:26.744Z,61.88
2022-11-01T07:34:26.772Z,61.88
2022-11-01T07:35:26.767Z,61.88
2022-11-01T07:36:26.768Z,67.50
2022-11-01T07:38:26.778Z,73.13
2022-11-01T07:39:26.780Z,73.13
2022-11-01T07:40:26.850Z,67.50
2022-11-01T07:41:26.795Z,61.88
2022-11-01T07:42:26.797Z,61.88
2022-11-01T07:43:26.812Z,61.88
2022-11-01T07:44:26.809Z,56.25
2022-11-01T07:45:26.825Z,56.25
2022-11-01T07:46:26.826Z,61.88
2022-11-01T07:47:26.831Z,61.88
2022-11-01T07:48:26.835Z,67.50
2022-11-01T07:49:26.844Z,73.13
2022-11-01T07:50:26.968Z,73.13
2022-11-01T07:51:26.858Z,78.75
2022-11-01T07:52:26.862Z,84.38
2022-11-01T07:53:26.870Z,90.00
2022-11-01T07:54:26.882Z,95.63
2022-11-01T07:55:26.889Z,101.25
2022-11-01T07:56:26.889Z,106.88
2022-11-01T07:57:26.902Z,118.13
2022-11-01T07:58:26.910Z,129.38
2022-11-01T07:59:26.919Z,123.75
2022-11-01T08:00:27.012Z,118.13
2022-11-01T08:01:27.022Z,106.88
2022-11-01T08:02:27.116Z,106.88
2022-11-01T08:03:26.942Z,118.13
2022-11-01T08:04:26.943Z,118.13
2022-11-01T08:05:26.955Z,123.75
2022-11-01T08:06:26.987Z,129.38
2022-11-01T08:07:26.964Z,118.13
2022-11-01T08:08:26.977Z,118.13
2022-11-01T08:09:26.974Z,129.38
2022-11-01T08:10:26.984Z,140.63
2022-11-01T08:11:26.996Z,146.25
2022-11-01T08:12:26.997Z,140.63
2022-11-01T08:13:27.005Z,123.75
2022-11-01T08:14:27.012Z,106.88
2022-11-01T08:15:27.016Z,90.00
2022-11-01T08:16:27.024Z,84.38
2022-11-01T08:17:27.036Z,84.38
2022-11-01T08:18:27.044Z,90.00
2022-11-01T08:19:27.043Z,101.25
2022-11-01T08:20:27.059Z,106.88
2022-11-01T08:21:27.057Z,123.75
2022-11-01T08:22:27.092Z,135.00
2022-11-01T08:23:27.078Z,146.25
2022-11-01T08:24:27.088Z,157.50
2022-11-01T08:25:27.085Z,180.00
2022-11-01T08:26:27.099Z,202.50
2022-11-01T08:27:29.262Z,213.75
2022-11-01T08:28:27.105Z,208.13
2022-11-01T08:29:27.123Z,196.88
2022-11-01T08:30:27.120Z,174.38
2022-11-01T08:31:27.131Z,146.25
2022-11-01T08:32:27.140Z,123.75
2022-11-01T08:33:27.149Z,106.88
2022-11-01T08:34:27.149Z,95.63
2022-11-01T08:35:27.164Z,84.38
2022-11-01T08:36:27.168Z,67.50
2022-11-01T08:37:27.171Z,56.25
2022-11-01T08:38:27.195Z,56.25
2022-11-01T08:39:27.194Z,50.63
2022-11-01T08:40:27.190Z,50.63
2022-11-01T08:41:27.199Z,56.25
2022-11-01T08:42:27.205Z,61.88
2022-11-01T08:43:27.216Z,61.88
2022-11-01T08:44:27.222Z,67.50
2022-11-01T08:45:27.228Z,73.13
2022-11-01T08:46:27.247Z,78.75
2022-11-01T08:47:27.248Z,78.75
2022-11-01T08:48:27.248Z,84.38
2022-11-01T08:49:28.265Z,95.63
2022-11-01T08:50:27.281Z,101.25
2022-11-01T11:19:59.062Z,933.75
2022-11-01T11:20:59.062Z,855.00
2022-11-01T11:21:59.066Z,810.00
2022-11-01T13:17:20.665Z,421.88
2022-11-01T13:18:20.664Z,348.75
2022-11-01T13:19:20.667Z,343.13
2022-11-01T13:20:20.678Z,315.00
2022-11-01T13:21:20.692Z,281.25
2022-11-01T13:22:20.711Z,258.75
2022-11-01T13:23:20.719Z,241.88
2022-11-01T13:24:20.739Z,236.25
2022-11-01T13:25:20.753Z,219.38
2022-11-01T13:26:20.765Z,208.13
2022-11-01T13:27:20.783Z,196.88
2022-11-01T13:28:20.792Z,196.88
2022-11-01T13:29:20.806Z,180.00
2022-11-01T13:30:20.822Z,174.38
2022-11-01T13:31:20.826Z,180.00
2022-11-01T13:32:20.860Z,180.00
2022-11-01T13:33:20.876Z,174.38
2022-11-01T13:34:20.860Z,168.75
2022-11-01T13:35:20.875Z,163.13
2022-11-01T13:40:30.076Z,163.13
2022-11-01T13:41:30.085Z,157.50
2022-11-01T13:42:30.091Z,157.50
2022-11-01T13:43:30.100Z,157.50
2022-11-01T13:44:30.113Z,157.50
2022-11-01T13:46:37.721Z,151.88
2022-11-01T13:47:37.791Z,151.88
2022-11-01T13:48:37.773Z,151.88
2022-11-01T13:52:03.618Z,151.88
2022-11-01T13:53:03.635Z,146.25
2022-11-01T13:54:03.638Z,146.25
2022-11-01T13:55:03.654Z,140.63
2022-11-01T13:56:03.668Z,146.25
2022-11-01T13:57:03.679Z,140.63
2022-11-01T13:58:04.205Z,140.63
2022-11-01T13:59:03.699Z,140.63
2022-11-01T14:00:03.701Z,140.63
2022-11-01T14:01:03.800Z,140.63
2022-11-01T14:02:03.937Z,140.63
2022-11-01T14:03:03.740Z,140.63
2022-11-01T14:04:03.769Z,146.25
2022-11-01T14:05:03.761Z,146.25
2022-11-01T14:06:03.764Z,146.25
2022-11-01T14:07:05.092Z,140.63
2022-11-01T14:08:04.148Z,135.00
2022-11-01T14:09:03.804Z,129.38
2022-11-01T14:10:03.805Z,129.38
2022-11-01T14:11:03.815Z,135.00
2022-11-01T14:12:03.833Z,140.63
2022-11-01T14:13:03.836Z,135.00
2022-11-01T14:14:03.848Z,140.63
2022-11-01T14:15:03.857Z,157.50
2022-11-01T14:16:03.870Z,241.88
2022-11-01T14:17:03.884Z,309.38
2022-11-01T14:18:04.591Z,247.50
2022-11-01T14:19:03.913Z,253.13
2022-11-01T14:22:29.793Z,303.75
2022-11-01T14:23:29.786Z,315.00
2022-11-01T14:24:34.779Z,230.63
2022-11-01T14:25:29.808Z,253.13
2022-11-01T14:26:29.823Z,320.63
2022-11-01T14:27:29.827Z,298.13
2022-11-01T14:28:29.844Z,286.88
2022-11-01T14:29:29.852Z,264.38
2022-11-01T14:30:29.866Z,247.50
2022-11-01T14:31:29.881Z,241.88
2022-11-01T14:33:12.435Z,146.25
2022-11-01T14:34:12.448Z,129.38
2022-11-01T14:35:12.451Z,129.38
2022-11-01T14:36:12.472Z,123.75
2022-11-01T14:37:12.474Z,106.88
2022-11-01T14:38:12.517Z,101.25
2022-11-01T14:39:12.506Z,101.25
2022-11-01T14:40:12.517Z,101.25
2022-11-01T14:41:12.519Z,101.25
2022-11-01T14:42:12.537Z,106.88
2022-11-01T14:43:12.542Z,106.88
2022-11-01T14:44:12.564Z,101.25
2022-11-01T14:45:12.572Z,101.25
2022-11-01T14:46:12.586Z,95.63
2022-11-01T14:47:12.589Z,90.00
2022-11-01T14:48:12.606Z,90.00
2022-11-01T14:49:12.619Z,84.38
2022-11-01T14:50:12.621Z,84.38
2022-11-01T14:51:12.637Z,78.75
2022-11-01T14:52:12.643Z,78.75
2022-11-01T14:53:12.655Z,73.13
2022-11-01T14:54:13.538Z,73.13
2022-11-01T14:55:13.803Z,73.13
2022-11-01T14:56:12.693Z,73.13
2022-11-01T14:57:12.697Z,67.50
2022-11-01T14:58:12.708Z,73.13
2022-11-01T14:59:12.716Z,67.50
2022-11-01T15:00:12.730Z,67.50
2022-11-01T15:01:12.891Z,67.50
2022-11-01T15:02:12.852Z,67.50
2022-11-01T15:03:12.769Z,61.88
2022-11-01T15:04:12.769Z,61.88
2022-11-01T15:05:12.787Z,61.88
2022-11-01T15:06:55.334Z,61.88
2022-11-01T15:07:55.361Z,56.25
2022-11-01T15:08:55.361Z,56.25
2022-11-01T15:09:55.390Z,50.63
2022-11-01T15:10:55.374Z,50.63
2022-11-01T15:11:55.386Z,50.63
2022-11-01T15:12:55.397Z,50.63
2022-11-01T15:13:55.412Z,50.63
2022-11-01T15:14:55.415Z,50.63
2022-11-01T15:15:55.428Z,50.63
2022-11-01T15:16:55.433Z,45.00
2022-11-01T15:17:55.454Z,45.00
2022-11-01T15:18:55.453Z,45.00
2022-11-01T15:19:55.472Z,39.38
2022-11-01T15:20:55.483Z,39.38
2022-11-01T15:21:55.490Z,39.38
2022-11-01T15:22:55.505Z,39.38
2022-11-01T15:23:55.511Z,33.75
2022-11-01T15:24:55.517Z,33.75
2022-11-01T15:25:55.541Z,33.75
2022-11-01T15:26:55.537Z,33.75
2022-11-01T15:27:55.549Z,28.13
2022-11-01T15:28:55.560Z,28.13
2022-11-01T15:29:55.561Z,28.13
2022-11-01T15:30:55.574Z,28.13
2022-11-01T15:31:55.581Z,22.50
2022-11-01T15:32:55.599Z,22.50
2022-11-01T15:33:55.599Z,22.50
2022-11-01T15:34:55.611Z,16.88
2022-11-01T15:35:55.620Z,16.88
2022-11-01T15:36:55.640Z,16.88
2022-11-01T15:37:55.638Z,11.25
2022-11-01T15:38:55.648Z,11.25
2022-11-01T15:39:55.701Z,11.25
2022-11-01T15:40:55.678Z,11.25
2022-11-01T15:41:55.703Z,11.25
2022-11-01T15:42:55.693Z,11.25
2022-11-01T15:43:55.697Z,11.25
2022-11-01T15:44:55.714Z,11.25
2022-11-01T15:45:55.722Z,5.63
2022-11-01T15:46:55.736Z,5.63
2022-11-01T15:47:55.736Z,5.63
2022-11-01T15:48:55.749Z,5.63
2022-11-01T15:49:55.761Z,5.63
2022-11-01T15:50:55.769Z,5.63
2022-11-01T15:51:55.771Z,5.63
2022-11-01T15:52:55.787Z,5.63
2022-11-01T15:53:55.803Z,5.63
2022-11-01T15:54:55.799Z,5.63
2022-11-01T15:55:58.431Z,5.63
2022-11-01T15:56:55.827Z,0.00
2022-11-01T15:57:55.855Z,0.00
2022-11-01T15:58:55.929Z,0.00
2022-11-01T15:59:55.844Z,0.00
2022-11-01T16:00:55.887Z,0.00
2022-11-01T16:01:57.574Z,0.00
2022-11-01T16:02:55.879Z,0.00
2022-11-01T16:03:55.880Z,0.00
2022-11-01T16:04:55.891Z,0.00
2022-11-01T16:05:57.012Z,0.00
2022-11-01T16:06:55.907Z,0.00
2022-11-01T16:07:55.919Z,0.00
2022-11-01T16:08:55.925Z,0.00
2022-11-01T16:09:55.932Z,0.00
2022-11-01T16:10:55.942Z,0.00
2022-11-01T16:11:55.957Z,0.00
2022-11-01T17:29:24.146Z,0.00
2022-11-01T17:30:24.122Z,0.00
2022-11-01T17:31:24.141Z,0.00
2022-11-01T17:32:24.132Z,0.00
2022-11-01T17:33:24.147Z,0.00
2022-11-01T17:34:24.193Z,0.00
2022-11-01T17:35:26.692Z,0.00
2022-11-01T17:36:24.160Z,0.00
2022-11-01T17:37:24.175Z,0.00
2022-11-01T17:38:27.739Z,0.00
2022-11-01T17:39:24.184Z,0.00
2022-11-01T17:40:24.189Z,0.00
2022-11-01T17:41:24.197Z,0.00
2022-11-01T17:42:24.214Z,0.00
2022-11-01T17:43:24.212Z,0.00
2022-11-01T17:44:24.233Z,0.00
2022-11-01T17:45:24.255Z,0.00
2022-11-01T17:46:24.237Z,0.00
2022-11-01T17:47:24.248Z,0.00
2022-11-01T17:48:24.256Z,0.00
2022-11-01T17:49:24.256Z,0.00
2022-11-01T17:50:24.272Z,0.00
2022-11-01T17:51:24.287Z,0.00
2022-11-01T17:52:24.284Z,0.00
2022-11-01T17:53:24.293Z,0.00
2022-11-01T17:55:24.304Z,0.00
2022-11-01T17:56:24.320Z,0.00
2022-11-01T17:57:24.324Z,0.00
2022-11-01T17:58:24.325Z,0.00
2022-11-01T17:59:24.331Z,0.00
2022-11-01T18:00:24.338Z,0.00
2022-11-01T18:01:24.508Z,0.00
2022-11-01T18:02:24.504Z,0.00
2022-11-01T18:04:46.992Z,0.00
2022-11-01T18:05:46.998Z,0.00
2022-11-01T18:06:47.006Z,0.00
2022-11-01T18:07:47.005Z,0.00
2022-11-01T18:08:47.016Z,0.00
2022-11-01T18:09:47.029Z,0.00
2022-11-01T18:55:17.450Z,0.00
2022-11-01T18:56:17.366Z,0.00
2022-11-01T18:57:17.388Z,0.00
2022-11-01T18:58:17.384Z,0.00
2022-11-01T18:59:17.382Z,0.00
2022-11-01T19:00:17.398Z,0.00
2022-11-01T19:01:17.568Z,0.00
2022-11-01T19:02:17.514Z,0.00
2022-11-01T19:03:21.784Z,0.00
2022-11-01T19:04:17.417Z,0.00
2022-11-01T19:05:17.430Z,0.00
2022-11-01T19:06:17.436Z,0.00
2022-11-01T19:07:17.441Z,0.00
2022-11-01T19:08:17.441Z,0.00
2022-11-01T19:09:17.449Z,0.00
2022-11-01T19:10:17.455Z,0.00
2022-11-01T19:11:17.488Z,0.00
2022-11-01T19:12:17.480Z,0.00
2022-11-01T19:13:17.482Z,0.00
2022-11-01T19:14:17.491Z,0.00
2022-11-01T19:15:17.494Z,0.00
2022-11-01T19:17:17.509Z,0.00
2022-11-01T19:18:17.513Z,0.00
2022-11-01T19:19:17.515Z,0.00
2022-11-01T19:20:17.522Z,0.00
2022-11-01T19:21:17.530Z,0.00
2022-11-01T19:22:17.535Z,0.00
2022-11-01T19:23:17.550Z,0.00
2022-11-01T19:24:17.556Z,0.00
2022-11-01T19:25:17.559Z,0.00
2022-11-01T19:26:17.570Z,0.00
2022-11-01T19:27:17.596Z,0.00
2022-11-01T19:28:17.588Z,0.00
2022-11-01T19:29:17.591Z,0.00
2022-11-01T19:30:17.598Z,0.00
2022-11-01T19:31:17.596Z,0.00
2022-11-01T19:32:17.603Z,0.00
2022-11-01T19:33:17.611Z,0.00
2022-11-01T19:34:17.625Z,0.00
2022-11-01T19:35:21.916Z,0.00
2022-11-01T19:36:17.629Z,0.00
2022-11-01T19:37:17.639Z,0.00
2022-11-01T19:38:17.654Z,0.00
2022-11-01T19:39:17.657Z,0.00
2022-11-01T19:40:17.655Z,0.00
2022-11-01T19:41:17.671Z,0.00
2022-11-01T19:42:17.677Z,0.00
2022-11-01T19:43:17.699Z,0.00
2022-11-01T19:44:17.689Z,0.00
2022-11-01T19:45:17.697Z,0.00
2022-11-01T19:46:17.708Z,0.00
2022-11-01T19:47:17.706Z,0.00
2022-11-01T19:48:17.717Z,0.00
2022-11-01T19:49:17.715Z,0.00
2022-11-01T19:50:17.723Z,0.00
2022-11-01T19:51:17.737Z,0.00
2022-11-01T19:52:17.745Z,0.00
2022-11-01T19:53:17.742Z,0.00
2022-11-01T19:54:17.748Z,0.00
2022-11-01T19:55:17.757Z,0.00
2022-11-01T19:56:17.762Z,0.00
2022-11-01T19:57:17.808Z,0.00
2022-11-01T19:58:17.775Z,0.00
2022-11-01T19:59:17.803Z,0.00
2022-11-01T20:00:17.790Z,0.00
2022-11-01T20:01:17.953Z,0.00
2022-11-01T20:02:17.977Z,0.00